createdAt,value
2023-04-02T00:01:16.848Z,69.27
2023-04-02T00:03:20.079Z,69.13
2023-04-02T00:05:41.191Z,69.29
2023-04-02T00:07:43.974Z,69.44
2023-04-02T00:09:45.654Z,69.59
2023-04-02T00:11:49.126Z,69.39
2023-04-02T00:13:52.104Z,69.50
2023-04-02T00:15:58.314Z,69.47
2023-04-02T00:18:00.775Z,69.21
2023-04-02T00:20:06.621Z,69.36
2023-04-02T00:22:15.893Z,69.53
2023-04-02T00:24:20.793Z,69.63
2023-04-02T00:26:28.751Z,69.49
2023-04-02T00:28:30.934Z,69.60
2023-04-02T00:30:32.578Z,69.39
2023-04-02T00:32:36.063Z,68.89
2023-04-02T00:34:39.631Z,69.14
2023-04-02T00:36:47.131Z,69.18
2023-04-02T00:38:49.081Z,69.13
2023-04-02T00:40:52.578Z,69.67
2023-04-02T00:42:57.628Z,69.76
2023-04-02T00:45:01.343Z,69.73
2023-04-02T00:47:10.863Z,69.78
2023-04-02T00:49:20.336Z,69.92
2023-04-02T00:51:26.079Z,69.86
2023-04-02T00:53:30.964Z,70.02
2023-04-02T00:55:36.625Z,69.87
2023-04-02T00:57:42.311Z,69.95
2023-04-02T00:59:51.421Z,70.13
2023-04-02T01:01:56.710Z,70.24
2023-04-02T01:03:59.597Z,70.21
2023-04-02T01:06:05.714Z,70.24
2023-04-02T01:08:16.631Z,70.10
2023-04-02T01:10:35.104Z,70.03
2023-04-02T01:12:51.045Z,70.10
2023-04-02T01:15:02.150Z,70.14
2023-04-02T01:17:17.037Z,69.86
2023-04-02T01:19:44.089Z,69.59
2023-04-02T01:21:56.048Z,70.00
2023-04-02T01:24:02.500Z,69.61
2023-04-02T01:26:15.622Z,69.72
2023-04-02T01:28:20.619Z,69.80
2023-04-02T01:30:24.094Z,69.71
2023-04-02T01:32:28.971Z,69.74
2023-04-02T01:34:31.176Z,69.76
2023-04-02T01:36:42.471Z,69.86
2023-04-02T01:38:50.664Z,70.03
2023-04-02T01:40:58.503Z,70.07
2023-04-02T01:43:12.657Z,70.24
2023-04-02T01:45:16.365Z,70.38
2023-04-02T01:47:22.871Z,70.17
2023-04-02T01:49:24.606Z,70.25
2023-04-02T01:51:29.767Z,70.20
2023-04-02T01:53:31.590Z,70.06
2023-04-02T01:55:40.252Z,69.81
2023-04-02T01:57:44.791Z,69.78
2023-04-02T01:59:46.527Z,69.80
2023-04-02T02:01:53.369Z,70.06
2023-04-02T02:03:56.683Z,70.09
2023-04-02T02:05:59.137Z,69.93
2023-04-02T02:08:00.766Z,69.72
2023-04-02T02:10:03.004Z,70.13
2023-04-02T02:12:05.505Z,69.84
2023-04-02T02:14:14.975Z,69.89
2023-04-02T02:16:17.421Z,69.48
2023-04-02T02:18:21.709Z,69.33
2023-04-02T02:20:27.936Z,69.11
2023-04-02T02:22:32.745Z,69.31
2023-04-02T02:24:36.032Z,69.67
2023-04-02T02:26:38.406Z,69.32
2023-04-02T02:28:42.516Z,69.38
2023-04-02T02:30:47.981Z,69.50
2023-04-02T02:32:59.860Z,69.24
2023-04-02T02:35:06.014Z,69.06
2023-04-02T02:37:13.817Z,69.16
2023-04-02T02:39:20.152Z,69.16
2023-04-02T02:41:26.910Z,69.23
2023-04-02T02:43:29.144Z,69.20
2023-04-02T02:45:36.403Z,69.26
2023-04-02T02:47:39.923Z,69.16
2023-04-02T02:49:44.757Z,69.53
2023-04-02T02:51:50.473Z,69.75
2023-04-02T02:53:57.657Z,69.71
2023-04-02T02:56:01.739Z,70.07
2023-04-02T02:58:07.406Z,69.92
2023-04-02T03:09:23.969Z,70.14
2023-04-02T03:11:32.777Z,69.88
2023-04-02T03:13:37.537Z,70.26
2023-04-02T03:15:49.777Z,70.24
2023-04-02T03:17:57.802Z,70.01
2023-04-02T03:20:04.541Z,70.47
2023-04-02T03:22:13.092Z,70.17
2023-04-02T03:24:23.737Z,70.22
2023-04-02T03:26:31.161Z,70.16
2023-04-02T03:28:36.444Z,70.32
2023-04-02T03:30:44.871Z,70.15
2023-04-02T03:32:50.817Z,70.07
2023-04-02T03:34:56.682Z,69.92
2023-04-02T03:37:02.172Z,69.74
2023-04-02T03:39:14.351Z,70.05
2023-04-02T03:41:21.425Z,69.86
2023-04-02T03:43:25.919Z,69.95
2023-04-02T03:45:32.346Z,70.00
2023-04-02T03:47:36.798Z,69.87
2023-04-02T03:49:43.777Z,69.78
2023-04-02T03:51:52.856Z,69.84
2023-04-02T03:53:55.137Z,69.84
2023-04-02T04:00:24.539Z,69.70
2023-04-02T04:02:35.163Z,69.77
2023-04-02T04:04:41.501Z,69.98
2023-04-02T04:06:46.122Z,69.85
2023-04-02T04:08:51.772Z,69.73
2023-04-02T04:10:56.042Z,69.87
2023-04-02T04:13:03.834Z,70.23
2023-04-02T04:15:12.268Z,70.09
2023-04-02T04:17:20.689Z,70.30
2023-04-02T04:19:31.587Z,70.36
2023-04-02T04:21:33.725Z,70.23
2023-04-02T04:23:38.536Z,70.27
2023-04-02T04:25:41.112Z,70.44
2023-04-02T04:27:51.241Z,70.55
2023-04-02T04:29:57.864Z,70.53
2023-04-02T04:32:16.396Z,70.41
2023-04-02T04:34:24.362Z,70.50
2023-04-02T04:36:30.725Z,70.69
2023-04-02T04:38:35.578Z,70.82
2023-04-02T04:40:45.015Z,70.94
2023-04-02T04:42:50.472Z,71.04
2023-04-02T04:45:00.233Z,70.90
2023-04-02T04:47:07.984Z,70.77
2023-04-02T04:49:14.473Z,70.95
2023-04-02T04:51:24.126Z,70.95
2023-04-02T04:53:28.029Z,70.82
2023-04-02T04:55:35.255Z,70.52
2023-04-02T04:57:41.391Z,70.88
2023-04-02T04:59:48.869Z,70.53
2023-04-02T05:01:57.371Z,70.37
2023-04-02T05:04:05.256Z,70.29
2023-04-02T05:06:13.190Z,70.39
2023-04-02T05:08:21.556Z,70.04
2023-04-02T05:10:34.543Z,70.04
2023-04-02T05:12:39.697Z,70.08
2023-04-02T05:14:49.224Z,70.10
2023-04-02T05:16:57.458Z,69.76
2023-04-02T05:19:06.502Z,69.75
2023-04-02T05:21:16.973Z,69.50
2023-04-02T05:23:23.872Z,69.34
2023-04-02T05:25:27.685Z,69.71
2023-04-02T05:27:38.664Z,69.70
2023-04-02T05:29:44.348Z,69.95
2023-04-02T05:31:53.853Z,69.88
2023-04-02T05:33:56.048Z,69.76
2023-04-02T05:36:00.857Z,69.66
2023-04-02T05:38:03.093Z,69.82
2023-04-02T05:40:14.908Z,69.39
2023-04-02T05:42:22.330Z,69.75
2023-04-02T05:44:27.494Z,69.88
2023-04-02T05:46:34.588Z,69.76
2023-04-02T05:48:39.734Z,70.10
2023-04-02T05:50:44.590Z,69.89
2023-04-02T05:52:50.185Z,69.84
2023-04-02T05:54:58.365Z,69.74
2023-04-02T05:57:04.625Z,69.80
2023-04-02T05:59:11.254Z,69.34
2023-04-02T06:01:20.092Z,69.37
2023-04-02T06:03:28.365Z,69.19
2023-04-02T06:05:36.675Z,69.25
2023-04-02T06:07:45.265Z,69.22
2023-04-02T06:09:50.752Z,69.42
2023-04-02T06:11:57.493Z,69.63
2023-04-02T06:14:00.725Z,69.65
2023-04-02T06:16:03.048Z,69.37
2023-04-02T06:18:08.278Z,69.52
2023-04-02T06:20:15.322Z,69.49
2023-04-02T06:22:23.636Z,69.73
2023-04-02T06:24:27.640Z,69.31
2023-04-02T06:26:33.746Z,69.38
2023-04-02T06:28:40.418Z,69.60
2023-04-02T06:30:44.145Z,69.43
2023-04-02T06:32:45.956Z,69.27
2023-04-02T06:34:47.669Z,69.52
2023-04-02T06:36:51.186Z,69.51
2023-04-02T06:38:55.953Z,69.28
2023-04-02T06:40:59.646Z,69.12
2023-04-02T06:43:07.291Z,69.39
2023-04-02T06:45:16.744Z,69.03
2023-04-02T06:47:28.963Z,69.28
2023-04-02T06:49:36.056Z,68.53
2023-04-02T06:51:41.176Z,68.97
2023-04-02T06:53:46.279Z,69.30
2023-04-02T06:55:52.561Z,68.85
2023-04-02T06:57:54.295Z,69.21
2023-04-02T06:59:56.052Z,69.19
2023-04-02T07:02:01.426Z,69.14
2023-04-02T07:04:04.967Z,69.31
2023-04-02T07:06:13.114Z,69.16
2023-04-02T07:08:14.790Z,69.24
2023-04-02T07:10:16.476Z,69.26
2023-04-02T07:12:22.501Z,69.26
2023-04-02T07:14:24.103Z,69.59
2023-04-02T07:16:27.998Z,69.79
2023-04-02T07:18:31.618Z,69.89
2023-04-02T07:20:35.930Z,70.25
2023-04-02T07:22:37.626Z,70.24
2023-04-02T07:24:39.300Z,69.74
2023-04-02T07:26:41.433Z,70.25
2023-04-02T07:28:43.567Z,70.01
2023-04-02T07:30:46.081Z,69.92
2023-04-02T07:32:48.376Z,70.16
2023-04-02T07:34:50.029Z,70.00
2023-04-02T07:36:53.026Z,70.08
2023-04-02T07:38:54.778Z,69.45
2023-04-02T07:40:56.486Z,69.87
2023-04-02T07:42:58.120Z,69.69
2023-04-02T07:44:59.726Z,69.62
2023-04-02T07:47:01.458Z,69.85
2023-04-02T07:49:03.583Z,69.80
2023-04-02T07:51:05.471Z,69.85
2023-04-02T07:53:25.565Z,69.52
2023-04-02T07:55:27.388Z,69.93
2023-04-02T07:57:29.013Z,69.75
2023-04-02T07:59:33.079Z,69.86
2023-04-02T08:01:34.677Z,70.07
2023-04-02T08:03:36.313Z,70.10
2023-04-02T08:05:38.289Z,70.27
2023-04-02T08:07:40.117Z,70.06
2023-04-02T08:09:43.032Z,70.12
2023-04-02T08:11:44.838Z,70.20
2023-04-02T08:13:46.603Z,70.16
2023-04-02T08:15:48.178Z,70.24
2023-04-02T08:17:49.896Z,69.60
2023-04-02T08:19:55.025Z,70.10
2023-04-02T08:21:57.103Z,69.91
2023-04-02T08:23:58.671Z,69.51
2023-04-02T08:26:01.956Z,69.98
2023-04-02T08:28:03.600Z,69.66
2023-04-02T08:30:07.382Z,70.15
2023-04-02T08:32:12.012Z,69.52
2023-04-02T08:34:13.876Z,69.86
2023-04-02T08:36:16.475Z,69.39
2023-04-02T08:38:21.189Z,69.05
2023-04-02T08:40:26.741Z,69.29
2023-04-02T08:42:37.716Z,69.32
2023-04-02T08:44:49.264Z,68.99
2023-04-02T08:46:54.329Z,69.15
2023-04-02T08:48:59.057Z,68.82
2023-04-02T08:51:03.029Z,69.20
2023-04-02T08:53:08.060Z,69.29
2023-04-02T08:55:19.744Z,69.71
2023-04-02T08:57:31.669Z,68.90
2023-04-02T08:59:36.406Z,68.83
2023-04-02T09:01:47.958Z,68.99
2023-04-02T09:03:53.799Z,68.50
2023-04-02T09:05:57.296Z,68.76
2023-04-02T09:08:02.309Z,69.11
2023-04-02T09:10:05.374Z,69.33
2023-04-02T09:12:17.759Z,68.17
2023-04-02T09:14:21.405Z,67.40
2023-04-02T09:16:38.577Z,68.09
2023-04-02T09:18:41.016Z,67.49
2023-04-02T09:20:43.091Z,67.59
2023-04-02T09:22:46.448Z,68.85
2023-04-02T09:24:51.858Z,67.54
2023-04-02T09:26:53.550Z,67.59
2023-04-02T09:29:01.984Z,67.42
2023-04-02T09:31:12.419Z,67.03
2023-04-02T09:33:15.463Z,67.74
2023-04-02T09:35:39.095Z,66.53
2023-04-02T09:37:40.855Z,66.47
2023-04-02T09:39:42.511Z,67.82
2023-04-02T09:41:46.373Z,68.16
2023-04-02T09:44:12.245Z,67.34
2023-04-02T09:46:18.412Z,66.70
2023-04-02T09:48:27.400Z,66.25
2023-04-02T09:50:33.827Z,66.61
2023-04-02T09:52:35.758Z,67.08
2023-04-02T09:54:38.096Z,67.77
2023-04-02T09:56:40.856Z,67.28
2023-04-02T09:58:44.715Z,67.10
2023-04-02T10:00:51.244Z,66.37
2023-04-02T10:03:05.028Z,66.76
2023-04-02T10:05:30.059Z,65.46
2023-04-02T10:07:42.867Z,66.07
2023-04-02T10:09:44.528Z,65.77
2023-04-02T10:11:47.036Z,66.25
2023-04-02T10:13:53.233Z,64.53
2023-04-02T10:15:59.552Z,64.91
2023-04-02T10:18:08.297Z,65.77
2023-04-02T10:20:19.555Z,66.48
2023-04-02T10:22:22.976Z,65.04
2023-04-02T10:24:28.003Z,64.63
2023-04-02T10:26:41.063Z,63.53
2023-04-02T10:28:55.609Z,62.44
2023-04-02T10:31:04.148Z,62.44
2023-04-02T10:33:14.728Z,62.75
2023-04-02T10:35:24.409Z,62.30
2023-04-02T10:37:58.853Z,63.37
2023-04-02T10:40:08.864Z,63.83
2023-04-02T10:42:18.856Z,64.23
2023-04-02T10:44:29.112Z,64.16
2023-04-02T10:46:38.062Z,64.33
2023-04-02T10:48:46.944Z,65.50
2023-04-02T10:50:59.492Z,64.39
2023-04-02T10:53:11.066Z,64.43
2023-04-02T10:55:18.205Z,65.64
2023-04-02T10:57:28.943Z,66.68
2023-04-02T10:59:34.777Z,66.04
2023-04-02T11:01:38.232Z,65.47
2023-04-02T11:03:46.049Z,65.96
2023-04-02T11:05:51.140Z,66.19
2023-04-02T11:08:00.112Z,65.96
2023-04-02T11:10:02.586Z,65.43
2023-04-02T11:12:07.212Z,65.57
2023-04-02T11:14:14.429Z,66.65
2023-04-02T11:16:16.227Z,67.83
2023-04-02T11:18:24.524Z,68.57
2023-04-02T11:21:03.298Z,69.98
2023-04-02T11:23:10.568Z,70.48
2023-04-02T11:25:22.484Z,71.60
2023-04-02T11:27:27.056Z,70.29
2023-04-02T11:29:31.129Z,70.50
2023-04-02T11:31:33.975Z,71.02
2023-04-02T11:33:44.711Z,70.95
2023-04-02T11:35:49.189Z,70.82
2023-04-02T11:37:51.428Z,71.05
2023-04-02T11:39:55.462Z,71.83
2023-04-02T11:42:06.345Z,70.75
2023-04-02T11:44:23.750Z,70.59
2023-04-02T11:46:39.106Z,69.76
2023-04-02T11:48:40.895Z,70.65
2023-04-02T11:50:44.466Z,70.50
2023-04-02T11:52:53.309Z,71.22
2023-04-02T11:55:15.841Z,70.18
2023-04-02T11:57:29.107Z,70.47
2023-04-02T11:59:40.718Z,70.31
2023-04-02T12:01:58.521Z,69.99
2023-04-02T12:04:38.113Z,69.53
2023-04-02T12:06:59.819Z,70.38
2023-04-02T12:09:13.759Z,70.29
2023-04-02T12:11:16.954Z,69.61
2023-04-02T12:13:20.185Z,69.92
2023-04-02T12:15:42.514Z,69.98
2023-04-02T12:17:44.728Z,69.09
2023-04-02T12:19:48.948Z,68.32
2023-04-02T12:21:52.157Z,69.15
2023-04-02T12:23:56.700Z,69.36
2023-04-02T12:25:59.911Z,68.96
2023-04-02T12:28:14.052Z,68.94
2023-04-02T12:30:18.606Z,68.24
2023-04-02T12:32:25.909Z,68.23
2023-04-02T12:34:30.162Z,68.59
2023-04-02T12:36:31.813Z,68.18
2023-04-02T12:38:35.593Z,68.45
2023-04-02T12:40:37.582Z,68.13
2023-04-02T12:42:39.421Z,68.52
2023-04-02T12:44:48.998Z,66.75
2023-04-02T12:46:51.536Z,67.47
2023-04-02T12:48:53.641Z,67.99
2023-04-02T12:51:00.123Z,67.43
2023-04-02T12:53:03.006Z,66.20
2023-04-02T12:55:05.729Z,67.17
2023-04-02T12:57:32.103Z,65.95
2023-04-02T12:59:36.587Z,64.60
2023-04-02T13:01:55.385Z,65.73
2023-04-02T13:04:02.199Z,64.18
2023-04-02T13:06:13.043Z,64.44
2023-04-02T13:08:19.121Z,65.56
2023-04-02T13:10:24.791Z,64.27
2023-04-02T13:12:31.145Z,64.94
2023-04-02T13:14:32.929Z,64.16
2023-04-02T13:16:37.321Z,63.94
2023-04-02T13:18:41.119Z,64.19
2023-04-02T13:20:43.395Z,63.92
2023-04-02T13:22:45.202Z,63.62
2023-04-02T13:24:46.877Z,63.33
2023-04-02T13:26:50.114Z,62.65
2023-04-02T13:29:03.293Z,62.59
2023-04-02T13:31:05.246Z,62.37
2023-04-02T13:33:07.006Z,62.91
2023-04-02T13:35:10.535Z,62.53
2023-04-02T13:37:12.737Z,62.61
2023-04-02T13:39:15.024Z,63.32
2023-04-02T13:41:22.907Z,61.83
2023-04-02T13:43:27.505Z,62.97
2023-04-02T13:45:32.760Z,62.01
2023-04-02T13:47:34.666Z,62.33
2023-04-02T13:49:36.297Z,62.55
2023-04-02T13:51:41.676Z,62.21
2023-04-02T13:53:43.590Z,62.23
2023-04-02T13:55:45.205Z,62.25
2023-04-02T13:57:46.982Z,61.15
2023-04-02T13:59:48.694Z,61.10
2023-04-02T14:01:53.323Z,60.99
2023-04-02T14:03:55.960Z,61.21
2023-04-02T14:06:04.112Z,60.94
2023-04-02T14:08:10.933Z,60.74
2023-04-02T14:10:22.841Z,62.06
2023-04-02T14:12:35.735Z,60.23
2023-04-02T14:15:05.172Z,60.07
2023-04-02T14:17:19.513Z,59.71
2023-04-02T14:19:35.611Z,59.25
2023-04-02T14:21:49.380Z,59.00
2023-04-02T14:24:06.310Z,59.07
2023-04-02T14:26:17.536Z,58.73
2023-04-02T14:28:24.573Z,58.85
2023-04-02T14:30:36.354Z,59.27
2023-04-02T14:32:50.082Z,58.73
2023-04-02T14:34:59.445Z,59.03
2023-04-02T14:37:10.517Z,59.22
2023-04-02T14:39:23.005Z,58.89
2023-04-02T14:41:33.491Z,58.57
2023-04-02T14:43:43.979Z,59.26
2023-04-02T14:45:56.153Z,58.60
2023-04-02T14:48:01.428Z,58.25
2023-04-02T14:50:10.027Z,57.67
2023-04-02T14:52:16.403Z,58.15
2023-04-02T14:54:26.220Z,58.08
2023-04-02T14:56:28.943Z,57.31
2023-04-02T14:58:34.368Z,57.85
2023-04-02T15:00:40.075Z,57.99
2023-04-02T15:02:45.405Z,57.45
2023-04-02T15:04:55.409Z,57.71
2023-04-02T15:07:02.874Z,58.16
2023-04-02T15:09:10.940Z,58.09
2023-04-02T15:11:19.623Z,58.35
2023-04-02T15:13:25.244Z,59.24
2023-04-02T15:15:40.895Z,57.90
2023-04-02T15:17:42.833Z,58.63
2023-04-02T15:19:47.188Z,59.29
2023-04-02T15:22:15.223Z,58.38
2023-04-02T15:24:22.275Z,58.72
2023-04-02T15:26:35.385Z,59.00
2023-04-02T15:28:43.787Z,58.79
2023-04-02T15:30:49.510Z,58.12
2023-04-02T15:32:51.808Z,58.00
2023-04-02T15:34:59.310Z,57.44
2023-04-02T15:37:13.418Z,57.67
2023-04-02T15:39:41.290Z,58.69
2023-04-02T15:41:57.360Z,60.06
2023-04-02T15:44:08.668Z,60.87
2023-04-02T15:46:21.297Z,60.79
2023-04-02T15:48:57.301Z,60.89
2023-04-02T15:51:11.081Z,60.38
2023-04-02T15:53:33.319Z,60.17
2023-04-02T15:55:41.347Z,60.18
2023-04-02T15:57:59.341Z,59.97
2023-04-02T16:00:28.392Z,58.77
2023-04-02T16:03:13.075Z,58.13
2023-04-02T16:05:21.607Z,58.05
2023-04-02T16:07:34.554Z,58.02
2023-04-02T16:09:46.727Z,58.26
2023-04-02T16:11:53.211Z,57.66
2023-04-02T16:14:10.737Z,58.24
2023-04-02T16:16:16.959Z,57.33
2023-04-02T16:18:30.516Z,57.30
2023-04-02T16:20:37.088Z,57.02
2023-04-02T16:22:53.395Z,57.40
2023-04-02T16:25:06.820Z,56.85
2023-04-02T16:27:21.253Z,56.85
2023-04-02T16:29:54.298Z,56.76
2023-04-02T16:32:02.209Z,57.04
2023-04-02T16:34:13.720Z,57.42
2023-04-02T16:36:26.214Z,57.48
2023-04-02T16:38:43.671Z,57.62
2023-04-02T16:41:07.015Z,57.05
2023-04-02T16:43:22.504Z,56.48
2023-04-02T16:45:35.206Z,56.52
2023-04-02T16:47:50.363Z,56.97
2023-04-02T16:49:57.438Z,56.25
2023-04-02T16:52:10.279Z,56.17
2023-04-02T16:54:21.149Z,56.16
2023-04-02T16:56:39.886Z,56.73
2023-04-02T16:58:50.679Z,56.54
2023-04-02T17:01:00.657Z,56.20
2023-04-02T17:03:17.839Z,56.47
2023-04-02T17:05:30.180Z,57.42
2023-04-02T17:07:38.258Z,57.47
2023-04-02T17:09:49.152Z,57.57
2023-04-02T17:11:56.862Z,57.48
2023-04-02T17:14:05.392Z,58.11
2023-04-02T17:16:16.674Z,57.96
2023-04-02T17:18:20.224Z,57.88
2023-04-02T17:20:23.982Z,58.55
2023-04-02T17:22:25.697Z,58.45
2023-04-02T17:24:30.805Z,57.42
2023-04-02T17:26:37.315Z,57.28
2023-04-02T17:28:39.612Z,56.71
2023-04-02T17:30:44.492Z,56.34
2023-04-02T17:32:50.404Z,56.19
2023-04-02T17:34:52.197Z,56.00
2023-04-02T17:37:02.142Z,55.69
2023-04-02T17:39:15.468Z,55.66
2023-04-02T17:41:23.294Z,55.31
2023-04-02T17:43:35.025Z,55.74
2023-04-02T17:45:44.240Z,55.69
2023-04-02T17:47:56.521Z,55.17
2023-04-02T17:50:21.617Z,54.93
2023-04-02T17:52:29.763Z,55.28
2023-04-02T17:54:39.531Z,54.41
2023-04-02T17:57:01.150Z,54.31
2023-04-02T17:59:17.232Z,54.40
2023-04-02T18:01:31.384Z,54.45
2023-04-02T18:03:58.052Z,54.93
2023-04-02T18:06:04.539Z,55.62
2023-04-02T18:08:14.336Z,55.13
2023-04-02T18:10:24.977Z,55.20
2023-04-02T18:12:39.940Z,55.48
2023-04-02T18:15:09.172Z,55.48
2023-04-02T18:17:20.160Z,55.73
2023-04-02T18:19:31.284Z,55.92
2023-04-02T18:21:42.005Z,55.66
2023-04-02T18:23:54.636Z,55.32
2023-04-02T18:26:03.737Z,55.69
2023-04-02T18:28:24.255Z,55.05
2023-04-02T18:30:31.605Z,55.09
2023-04-02T18:32:57.959Z,54.16
2023-04-02T18:35:12.200Z,54.46
2023-04-02T18:37:23.204Z,54.37
2023-04-02T18:39:35.398Z,54.33
2023-04-02T18:41:46.035Z,54.27
2023-04-02T18:44:01.762Z,54.89
2023-04-02T18:46:09.215Z,54.78
2023-04-02T18:48:25.641Z,54.34
2023-04-02T18:50:31.913Z,54.48
2023-04-02T18:52:34.549Z,54.57
2023-04-02T18:54:39.700Z,54.13
2023-04-02T18:56:42.697Z,54.44
2023-04-02T18:58:56.017Z,51.78
2023-04-02T19:00:58.841Z,51.03
2023-04-02T19:03:07.338Z,50.92
2023-04-02T19:05:23.455Z,50.44
2023-04-02T19:07:29.545Z,50.13
2023-04-02T19:09:33.997Z,50.67
2023-04-02T19:11:36.351Z,49.57
2023-04-02T19:13:38.357Z,49.56
2023-04-02T19:15:54.572Z,49.14
2023-04-02T19:18:03.500Z,48.98
2023-04-02T19:20:20.231Z,49.36
2023-04-02T19:22:34.485Z,49.69
2023-04-02T19:24:53.926Z,48.94
2023-04-02T19:27:02.083Z,48.72
2023-04-02T19:29:17.183Z,48.26
2023-04-02T19:31:47.305Z,48.67
2023-04-02T19:33:55.534Z,48.69
2023-04-02T19:35:59.388Z,48.79
2023-04-02T19:38:11.382Z,47.72
2023-04-02T19:40:32.027Z,48.03
2023-04-02T19:42:46.139Z,47.65
2023-04-02T19:44:51.671Z,48.23
2023-04-02T19:46:53.491Z,47.79
2023-04-02T19:49:01.961Z,47.62
2023-04-02T19:51:04.070Z,47.40
2023-04-02T19:53:07.226Z,47.75
2023-04-02T19:55:09.379Z,48.41
2023-04-02T19:57:15.721Z,47.31
2023-04-02T19:59:18.773Z,46.75
2023-04-02T20:01:20.739Z,46.92
2023-04-02T20:03:22.973Z,46.89
2023-04-02T20:05:24.679Z,47.45
2023-04-02T20:07:26.576Z,47.87
2023-04-02T20:09:29.597Z,47.69
2023-04-02T20:11:31.284Z,47.64
2023-04-02T20:13:33.515Z,48.45
2023-04-02T20:15:35.642Z,47.76
2023-04-02T20:17:37.371Z,47.38
2023-04-02T20:19:39.078Z,47.68
2023-04-02T20:21:43.362Z,47.64
2023-04-02T20:23:45.205Z,47.11
2023-04-02T20:25:49.156Z,47.80
2023-04-02T20:27:50.712Z,47.29
2023-04-02T20:29:52.274Z,47.71
2023-04-02T20:31:53.968Z,47.62
2023-04-02T20:33:56.227Z,47.37
2023-04-02T20:36:02.681Z,47.83
2023-04-02T20:38:04.413Z,47.22
2023-04-02T20:40:07.476Z,47.32
2023-04-02T20:42:10.652Z,47.44
2023-04-02T20:44:12.262Z,47.56
2023-04-02T20:46:14.097Z,47.76
2023-04-02T20:48:15.720Z,47.76
2023-04-02T20:50:17.743Z,47.44
2023-04-02T20:52:19.607Z,47.71
2023-04-02T20:54:21.278Z,47.15
2023-04-02T20:56:23.232Z,47.99
2023-04-02T20:58:26.256Z,46.97
2023-04-02T21:00:27.900Z,47.73
2023-04-02T21:02:29.501Z,47.66
2023-04-02T21:04:31.184Z,47.17
2023-04-02T21:06:36.030Z,47.31
2023-04-02T21:08:37.816Z,46.62
2023-04-02T21:10:39.773Z,46.56
2023-04-02T21:12:41.405Z,46.79
2023-04-02T21:14:44.495Z,47.27
2023-04-02T21:16:46.173Z,46.27
2023-04-02T21:18:49.650Z,47.87
2023-04-02T21:20:57.363Z,46.50
2023-04-02T21:23:00.904Z,47.47
2023-04-02T21:25:02.526Z,45.99
2023-04-02T21:27:04.393Z,47.02
2023-04-02T21:29:06.542Z,46.68
2023-04-02T21:31:11.480Z,47.68
2023-04-02T21:33:13.150Z,46.89
2023-04-02T21:35:14.860Z,46.78
2023-04-02T21:37:16.485Z,46.96
2023-04-02T21:39:20.330Z,47.09
2023-04-02T21:41:23.620Z,46.42
2023-04-02T21:43:25.294Z,46.56
2023-04-02T21:45:27.028Z,45.65
2023-04-02T21:47:30.058Z,45.93
2023-04-02T21:49:31.707Z,45.80
2023-04-02T21:51:34.129Z,46.34
2023-04-02T21:53:36.019Z,46.07
2023-04-02T21:55:37.630Z,46.60
2023-04-02T21:57:39.320Z,48.38
2023-04-02T21:59:44.084Z,45.93
2023-04-02T22:01:47.295Z,46.00
2023-04-02T22:03:50.511Z,47.02
2023-04-02T22:06:01.240Z,46.81
2023-04-02T22:08:02.970Z,47.63
2023-04-02T22:10:05.094Z,46.48
2023-04-02T22:12:06.685Z,46.73
2023-04-02T22:14:08.405Z,46.31
2023-04-02T22:16:12.401Z,47.14
2023-04-02T22:18:13.983Z,45.74
2023-04-02T22:20:17.109Z,45.54
2023-04-02T22:22:18.736Z,45.15
2023-04-02T22:24:20.415Z,45.37
2023-04-02T22:26:23.023Z,45.25
2023-04-02T22:28:25.717Z,46.48
2023-04-02T22:30:27.305Z,46.17
2023-04-02T22:32:29.034Z,45.26
2023-04-02T22:34:30.720Z,45.10
2023-04-02T22:36:34.516Z,45.19
2023-04-02T22:38:36.527Z,45.33
2023-04-02T22:40:38.402Z,45.97
2023-04-02T22:42:40.112Z,46.17
2023-04-02T22:44:41.707Z,44.09
2023-04-02T22:46:43.410Z,44.72
2023-04-02T22:48:48.940Z,44.19
2023-04-02T22:50:50.907Z,43.75
2023-04-02T22:52:54.089Z,44.30
2023-04-02T22:54:55.683Z,44.32
2023-04-02T22:56:57.394Z,43.88
2023-04-02T22:58:59.408Z,44.84
2023-04-02T23:01:03.564Z,43.80
2023-04-02T23:03:05.697Z,43.47
2023-04-02T23:05:08.211Z,44.43
2023-04-02T23:07:10.039Z,44.18
2023-04-02T23:09:13.122Z,44.03
2023-04-02T23:11:16.051Z,43.81
2023-04-02T23:13:17.598Z,45.30
2023-04-02T23:15:19.385Z,45.37
2023-04-02T23:17:20.974Z,46.20
2023-04-02T23:19:22.648Z,46.32
2023-04-02T23:21:25.523Z,46.11
2023-04-02T23:23:27.544Z,46.53
2023-04-02T23:25:30.540Z,46.04
2023-04-02T23:27:32.641Z,46.30
2023-04-02T23:29:34.234Z,46.56
2023-04-02T23:31:35.866Z,46.24
2023-04-02T23:33:37.624Z,44.78
2023-04-02T23:35:39.240Z,45.25
2023-04-02T23:37:40.798Z,45.56
2023-04-02T23:39:42.857Z,45.96
2023-04-02T23:41:46.069Z,46.23
2023-04-02T23:43:47.965Z,46.04
2023-04-02T23:45:50.026Z,45.68
2023-04-02T23:47:51.710Z,45.18
2023-04-02T23:49:53.576Z,45.25
2023-04-02T23:51:55.460Z,45.77
2023-04-02T23:53:57.051Z,46.14
2023-04-02T23:55:58.613Z,46.20
2023-04-02T23:58:01.544Z,46.36
